createdAt,value
2023-03-16T10:01:35.846Z,33.28
2023-03-16T10:02:53.215Z,33.35
2023-03-16T10:04:17.312Z,33.60
2023-03-16T10:05:23.807Z,33.14
2023-03-16T10:06:27.453Z,33.17
2023-03-16T10:07:59.391Z,32.26
2023-03-16T10:09:22.061Z,32.41
2023-03-16T10:10:29.352Z,32.40
2023-03-16T10:11:39.566Z,31.95
2023-03-16T10:12:45.838Z,32.23
2023-03-16T10:14:01.128Z,31.17
2023-03-16T10:15:15.512Z,32.09
2023-03-16T10:16:23.396Z,31.61
2023-03-16T10:17:55.714Z,30.63
2023-03-16T10:19:31.752Z,29.23
2023-03-16T10:20:36.308Z,29.65
2023-03-16T10:21:41.712Z,30.26
2023-03-16T10:22:46.636Z,30.59
2023-03-16T10:23:50.736Z,30.42
2023-03-16T10:25:22.083Z,30.46
2023-03-16T10:26:32.411Z,30.71
2023-03-16T10:27:39.276Z,30.98
2023-03-16T10:28:44.434Z,31.50
2023-03-16T10:29:48.087Z,31.99
2023-03-16T10:30:56.028Z,33.00
2023-03-16T10:32:02.056Z,33.37
2023-03-16T10:33:24.635Z,33.13
2023-03-16T10:34:28.390Z,32.58
2023-03-16T10:36:10.790Z,32.60
2023-03-16T10:37:15.092Z,33.61
2023-03-16T10:38:33.461Z,34.52
2023-03-16T10:39:37.842Z,34.58
2023-03-16T10:40:41.627Z,34.82
2023-03-16T10:41:46.560Z,34.56
2023-03-16T10:42:50.815Z,35.12
2023-03-16T10:43:56.978Z,35.61
2023-03-16T10:45:02.641Z,35.79
2023-03-16T10:46:06.717Z,36.17
2023-03-16T10:47:19.345Z,35.95
2023-03-16T10:48:29.297Z,35.39
2023-03-16T10:49:42.646Z,34.98
2023-03-16T10:50:53.652Z,35.32
2023-03-16T10:52:00.467Z,35.85
2023-03-16T10:53:04.039Z,36.00
2023-03-16T10:54:16.536Z,35.75
2023-03-16T10:55:29.656Z,36.57
2023-03-16T10:56:35.253Z,36.74
2023-03-16T10:57:42.697Z,37.08
2023-03-16T10:58:47.123Z,38.17
2023-03-16T11:00:16.023Z,38.31
2023-03-16T11:01:32.684Z,38.68
2023-03-16T11:02:36.689Z,37.73
2023-03-16T11:03:41.950Z,37.45
2023-03-16T11:04:47.324Z,37.69
2023-03-16T11:06:01.370Z,37.66
2023-03-16T11:07:10.134Z,37.48
2023-03-16T11:08:22.410Z,36.90
2023-03-16T11:09:29.071Z,37.14
2023-03-16T11:10:46.009Z,36.52
2023-03-16T11:11:56.046Z,36.78
2023-03-16T11:13:18.091Z,35.93
2023-03-16T11:14:28.792Z,35.39
2023-03-16T11:15:40.375Z,36.59
2023-03-16T11:16:55.820Z,36.62
2023-03-16T11:18:02.514Z,37.61
2023-03-16T11:19:30.487Z,36.95
2023-03-16T11:20:34.504Z,37.70
2023-03-16T11:22:10.067Z,38.75
2023-03-16T11:23:15.370Z,39.61
2023-03-16T11:24:51.459Z,39.89
2023-03-16T11:25:59.238Z,40.67
2023-03-16T11:27:05.180Z,41.17
2023-03-16T11:28:14.030Z,41.06
2023-03-16T11:30:02.210Z,41.48
2023-03-16T11:31:10.182Z,40.48
2023-03-16T11:32:17.750Z,42.39
2023-03-16T11:33:22.756Z,42.71
2023-03-16T11:34:32.731Z,42.08
2023-03-16T11:35:58.760Z,41.81
2023-03-16T11:37:33.841Z,42.13
2023-03-16T11:38:59.419Z,41.73
2023-03-16T11:40:21.254Z,41.72
2023-03-16T11:42:07.560Z,43.11
2023-03-16T11:43:45.264Z,43.42
2023-03-16T11:45:19.143Z,43.27
2023-03-16T11:46:44.698Z,43.76
2023-03-16T11:48:06.800Z,43.77
2023-03-16T11:49:48.014Z,44.69
2023-03-16T11:51:10.667Z,43.70
2023-03-16T11:52:40.693Z,44.00
2023-03-16T11:54:04.776Z,43.61
2023-03-16T11:55:30.057Z,42.95
2023-03-16T11:56:46.580Z,43.91
2023-03-16T11:58:08.955Z,43.55
2023-03-16T11:59:17.288Z,44.11
2023-03-16T12:00:49.186Z,43.59
2023-03-16T12:02:00.886Z,43.70
2023-03-16T12:03:26.987Z,43.98
2023-03-16T12:05:09.610Z,44.84
2023-03-16T12:06:23.959Z,44.82
2023-03-16T12:09:34.400Z,44.65
2023-03-16T12:10:45.109Z,44.36
2023-03-16T12:11:58.641Z,42.41
2023-03-16T12:13:23.930Z,41.05
2023-03-16T12:14:48.277Z,41.47
2023-03-16T12:15:54.452Z,41.01
2023-03-16T12:17:05.435Z,41.10
2023-03-16T12:18:27.392Z,40.39
2023-03-16T12:19:46.747Z,39.56
2023-03-16T12:21:15.804Z,38.22
2023-03-16T12:22:24.874Z,38.83
2023-03-16T12:23:46.729Z,39.64
2023-03-16T12:24:53.864Z,40.09
2023-03-16T12:25:58.892Z,40.29
2023-03-16T12:27:02.566Z,40.42
2023-03-16T12:28:10.521Z,40.43
2023-03-16T12:29:26.994Z,39.68
2023-03-16T12:30:55.030Z,37.11
2023-03-16T12:32:12.744Z,35.43
2023-03-16T12:33:48.743Z,34.53
2023-03-16T12:34:56.810Z,34.39
2023-03-16T12:36:05.770Z,32.87
2023-03-16T12:37:11.380Z,33.12
2023-03-16T12:38:47.169Z,33.00
2023-03-16T12:40:16.681Z,32.59
2023-03-16T12:41:38.928Z,32.54
2023-03-16T12:42:54.625Z,33.39
2023-03-16T12:44:05.963Z,32.81
2023-03-16T12:45:32.218Z,33.00
2023-03-16T12:46:58.634Z,33.41
2023-03-16T12:48:15.490Z,33.90
2023-03-16T12:49:20.244Z,33.95
2023-03-16T12:50:25.014Z,33.99
2023-03-16T12:51:43.208Z,34.17
2023-03-16T12:52:52.171Z,34.81
2023-03-16T12:53:56.606Z,35.29
2023-03-16T12:55:20.690Z,34.88
2023-03-16T12:56:31.988Z,34.77
2023-03-16T12:57:38.637Z,34.89
2023-03-16T12:58:52.658Z,36.30
2023-03-16T12:59:58.848Z,38.15
2023-03-16T13:01:03.524Z,39.09
2023-03-16T13:02:31.477Z,40.33
2023-03-16T13:03:35.647Z,40.11
2023-03-16T13:04:43.765Z,39.70
2023-03-16T13:05:51.410Z,40.00
2023-03-16T13:07:26.097Z,41.23
2023-03-16T13:08:30.031Z,43.13
2023-03-16T13:09:37.503Z,43.97
2023-03-16T13:10:41.478Z,44.37
2023-03-16T13:11:50.714Z,45.48
2023-03-16T13:12:54.318Z,45.66
2023-03-16T13:14:04.054Z,46.69
2023-03-16T13:15:24.430Z,46.83
2023-03-16T13:16:32.891Z,46.07
2023-03-16T13:17:38.992Z,45.70
2023-03-16T13:18:45.633Z,45.09
2023-03-16T13:20:11.832Z,43.71
2023-03-16T13:21:20.212Z,43.63
2023-03-16T13:22:23.601Z,44.58
2023-03-16T13:23:48.161Z,45.66
2023-03-16T13:25:15.013Z,47.14
2023-03-16T13:26:23.485Z,46.34
2023-03-16T13:27:31.674Z,47.26
2023-03-16T13:28:37.334Z,47.52
2023-03-16T13:29:41.102Z,48.14
2023-03-16T13:30:48.101Z,48.67
2023-03-16T13:31:52.481Z,48.17
2023-03-16T13:33:07.663Z,48.98
2023-03-16T13:34:14.973Z,49.65
2023-03-16T13:35:19.086Z,49.97
2023-03-16T13:36:22.871Z,50.99
2023-03-16T13:37:28.349Z,50.49
2023-03-16T13:38:31.936Z,50.32
2023-03-16T13:39:35.745Z,50.28
2023-03-16T13:40:41.102Z,50.68
2023-03-16T13:41:46.040Z,50.80
2023-03-16T13:42:53.829Z,50.58
2023-03-16T13:43:57.600Z,49.96
2023-03-16T13:45:14.798Z,50.30
2023-03-16T13:46:20.203Z,50.88
2023-03-16T13:47:24.329Z,49.99
2023-03-16T13:48:27.870Z,50.53
2023-03-16T13:50:35.290Z,49.26
2023-03-16T13:51:38.763Z,49.67
2023-03-16T13:52:44.719Z,49.75
2023-03-16T13:53:49.263Z,49.61
2023-03-16T13:54:53.703Z,49.87
2023-03-16T13:55:57.794Z,50.43
2023-03-16T13:57:04.204Z,50.40
2023-03-16T13:58:15.138Z,50.60
2023-03-16T13:59:19.415Z,51.06
2023-03-16T14:00:25.462Z,51.66
2023-03-16T14:01:30.434Z,51.08
2023-03-16T14:02:37.926Z,50.72
2023-03-16T14:03:44.270Z,50.83
2023-03-16T14:04:48.628Z,51.30
2023-03-16T14:05:52.452Z,51.23
2023-03-16T14:07:01.208Z,51.37
2023-03-16T14:08:05.495Z,51.24
2023-03-16T14:09:16.871Z,51.77
2023-03-16T14:10:21.849Z,51.52
2023-03-16T14:11:27.222Z,51.37
2023-03-16T14:12:31.138Z,50.70
2023-03-16T14:13:38.694Z,50.77
2023-03-16T14:14:42.169Z,50.92
2023-03-16T14:15:46.520Z,51.84
2023-03-16T14:16:50.683Z,52.01
2023-03-16T14:17:54.676Z,52.22
2023-03-16T14:19:07.050Z,51.88
2023-03-16T14:20:12.257Z,51.94
2023-03-16T14:21:18.448Z,52.89
2023-03-16T14:22:24.952Z,52.91
2023-03-16T14:23:32.414Z,53.56
2023-03-16T14:24:37.927Z,55.01
2023-03-16T14:25:41.296Z,55.15
2023-03-16T14:26:46.638Z,55.09
2023-03-16T14:27:57.302Z,55.22
2023-03-16T14:29:16.203Z,55.39
2023-03-16T14:30:24.902Z,55.23
2023-03-16T14:31:39.655Z,55.06
2023-03-16T14:32:43.573Z,55.02
2023-03-16T14:33:47.351Z,54.87
2023-03-16T14:34:52.136Z,54.20
2023-03-16T14:35:59.991Z,54.67
2023-03-16T14:37:11.879Z,54.81
2023-03-16T14:38:29.696Z,54.70
2023-03-16T14:39:33.868Z,55.33
2023-03-16T14:40:39.991Z,55.39
2023-03-16T14:41:44.698Z,55.19
2023-03-16T14:42:48.792Z,55.47
2023-03-16T14:43:57.171Z,55.09
2023-03-16T14:45:07.418Z,54.37
2023-03-16T14:46:12.129Z,54.45
2023-03-16T14:47:23.580Z,54.67
2023-03-16T14:48:27.683Z,54.34
2023-03-16T14:49:35.038Z,54.89
2023-03-16T14:50:38.963Z,55.44
2023-03-16T14:51:42.896Z,55.33
2023-03-16T14:52:47.332Z,55.39
2023-03-16T14:53:50.948Z,55.79
2023-03-16T14:54:55.821Z,54.65
2023-03-16T14:56:00.523Z,54.90
2023-03-16T14:57:06.199Z,54.74
2023-03-16T14:58:11.149Z,54.28
2023-03-16T14:59:15.245Z,54.55
2023-03-16T15:00:20.828Z,54.50
2023-03-16T15:01:26.231Z,54.74
2023-03-16T15:02:31.491Z,54.83
2023-03-16T15:03:36.594Z,54.82
2023-03-16T15:04:40.577Z,54.60
2023-03-16T15:05:46.957Z,54.44
2023-03-16T15:06:50.677Z,54.55
2023-03-16T15:07:55.058Z,54.54
2023-03-16T15:08:59.050Z,55.05
2023-03-16T15:10:27.374Z,56.38
2023-03-16T15:11:32.993Z,56.50
2023-03-16T15:12:38.813Z,56.18
2023-03-16T15:13:42.332Z,56.56
2023-03-16T15:15:04.364Z,56.54
2023-03-16T15:16:10.524Z,56.72
2023-03-16T15:17:15.552Z,57.03
2023-03-16T15:18:19.225Z,57.63
2023-03-16T15:19:23.557Z,57.96
2023-03-16T15:20:33.459Z,58.36
2023-03-16T15:21:37.169Z,58.55
2023-03-16T15:22:41.199Z,59.10
2023-03-16T15:23:45.545Z,59.88
2023-03-16T15:24:49.810Z,60.56
2023-03-16T15:25:59.364Z,61.29
2023-03-16T15:27:12.482Z,61.52
2023-03-16T15:28:19.421Z,61.89
2023-03-16T15:29:23.566Z,61.71
2023-03-16T15:30:28.116Z,62.29
2023-03-16T15:31:32.260Z,62.61
2023-03-16T15:32:36.673Z,62.79
2023-03-16T15:33:40.378Z,62.61
2023-03-16T15:34:46.466Z,62.87
2023-03-16T15:35:51.076Z,63.18
2023-03-16T15:36:55.428Z,63.20
2023-03-16T15:37:59.731Z,63.17
2023-03-16T15:39:03.557Z,63.26
2023-03-16T15:40:27.550Z,62.98
2023-03-16T15:41:41.318Z,62.09
2023-03-16T15:42:49.778Z,62.02
2023-03-16T15:43:53.429Z,62.20
2023-03-16T15:44:57.458Z,62.36
2023-03-16T15:46:09.424Z,62.04
2023-03-16T15:47:17.398Z,61.79
2023-03-16T15:48:24.825Z,61.43
2023-03-16T15:49:37.803Z,61.44
2023-03-16T15:50:52.126Z,61.62
2023-03-16T15:51:55.944Z,61.26
2023-03-16T15:53:03.069Z,61.23
2023-03-16T15:54:09.501Z,60.92
2023-03-16T15:55:26.020Z,61.02
2023-03-16T15:56:52.757Z,60.96
2023-03-16T15:58:00.667Z,60.32
2023-03-16T15:59:06.580Z,60.09
2023-03-16T16:00:29.465Z,60.53
2023-03-16T16:01:48.424Z,60.93
2023-03-16T16:02:52.205Z,61.03
2023-03-16T16:03:56.963Z,61.62
2023-03-16T16:05:00.721Z,62.41
2023-03-16T16:06:05.827Z,62.87
2023-03-16T16:07:11.450Z,62.70
2023-03-16T16:08:15.063Z,62.70
2023-03-16T16:09:19.272Z,62.71
2023-03-16T16:10:22.870Z,62.94
2023-03-16T16:11:28.205Z,63.24
2023-03-16T16:12:33.496Z,63.03
2023-03-16T16:13:44.551Z,63.37
2023-03-16T16:14:49.266Z,63.40
2023-03-16T16:16:03.474Z,63.22
2023-03-16T16:17:43.760Z,63.05
2023-03-16T16:18:50.421Z,63.48
2023-03-16T16:19:54.558Z,63.42
2023-03-16T16:20:59.422Z,62.97
2023-03-16T16:22:04.359Z,62.92
2023-03-16T16:23:11.309Z,62.75
2023-03-16T16:24:14.939Z,62.98
2023-03-16T16:25:19.572Z,63.09
2023-03-16T16:26:54.242Z,64.17
2023-03-16T16:28:00.115Z,63.74
2023-03-16T16:29:17.349Z,63.55
2023-03-16T16:30:26.962Z,62.91
2023-03-16T16:31:31.081Z,62.65
2023-03-16T16:32:34.668Z,63.01
2023-03-16T16:33:38.452Z,62.43
2023-03-16T16:34:42.821Z,62.05
2023-03-16T16:35:47.171Z,61.45
2023-03-16T16:36:51.299Z,61.04
2023-03-16T16:37:55.346Z,60.68
2023-03-16T16:39:01.117Z,60.65
2023-03-16T16:40:05.322Z,60.86
2023-03-16T16:41:10.087Z,60.24
2023-03-16T16:42:17.421Z,59.72
2023-03-16T16:43:43.487Z,59.12
2023-03-16T16:44:47.083Z,59.16
2023-03-16T16:45:50.852Z,58.33
2023-03-16T16:46:55.071Z,58.63
2023-03-16T16:47:59.812Z,58.97
2023-03-16T16:49:07.015Z,59.31
2023-03-16T16:50:22.145Z,58.80
2023-03-16T16:51:30.334Z,58.61
2023-03-16T16:52:34.127Z,58.25
2023-03-16T16:53:38.953Z,58.21
2023-03-16T16:54:42.965Z,57.96
2023-03-16T16:55:46.668Z,57.69
2023-03-16T16:56:57.307Z,58.16
2023-03-16T16:58:01.325Z,58.10
2023-03-16T16:59:26.750Z,58.22
2023-03-16T17:00:32.362Z,58.23
2023-03-16T17:01:36.533Z,57.70
2023-03-16T17:02:48.823Z,57.80
2023-03-16T17:03:52.566Z,57.64
2023-03-16T17:04:56.204Z,57.90
2023-03-16T17:05:59.769Z,58.05
2023-03-16T17:07:04.040Z,58.35
2023-03-16T17:08:08.027Z,58.63
2023-03-16T17:09:13.264Z,58.41
2023-03-16T17:10:28.036Z,58.89
2023-03-16T17:11:32.188Z,58.88
2023-03-16T17:12:36.204Z,59.49
2023-03-16T17:13:41.377Z,59.81
2023-03-16T17:14:45.228Z,60.27
2023-03-16T17:15:49.086Z,60.20
2023-03-16T17:16:54.344Z,60.49
2023-03-16T17:18:04.684Z,61.18
2023-03-16T17:19:08.443Z,60.95
2023-03-16T17:20:20.965Z,60.99
2023-03-16T17:21:25.726Z,61.18
2023-03-16T17:22:30.783Z,61.56
2023-03-16T17:23:35.390Z,62.60
2023-03-16T17:24:38.806Z,64.15
2023-03-16T17:25:43.418Z,65.92
2023-03-16T17:26:48.841Z,66.25
2023-03-16T17:27:53.283Z,67.08
2023-03-16T17:29:11.918Z,68.09
2023-03-16T17:30:30.548Z,68.64
2023-03-16T17:31:39.178Z,69.32
2023-03-16T17:32:42.718Z,69.18
2023-03-16T17:33:46.939Z,69.98
2023-03-16T17:34:51.150Z,69.77
2023-03-16T17:35:55.109Z,70.63
2023-03-16T17:36:59.160Z,71.24
2023-03-16T17:38:03.042Z,72.23
2023-03-16T17:39:13.016Z,72.29
2023-03-16T17:40:18.506Z,72.61
2023-03-16T17:41:29.387Z,73.37
2023-03-16T17:42:34.621Z,73.19
2023-03-16T17:43:38.544Z,73.11
2023-03-16T17:44:43.810Z,73.77
2023-03-16T17:45:48.194Z,74.21
2023-03-16T17:46:52.073Z,74.26
2023-03-16T17:47:57.962Z,74.97
2023-03-16T17:49:03.270Z,75.47
2023-03-16T17:50:29.560Z,75.89
2023-03-16T17:51:33.949Z,76.00
2023-03-16T17:52:39.607Z,76.16
2023-03-16T17:53:45.383Z,76.25
2023-03-16T17:54:49.552Z,76.01
2023-03-16T17:55:53.262Z,76.88
2023-03-16T17:56:56.912Z,77.85
2023-03-16T17:58:02.469Z,77.39
2023-03-16T17:59:08.623Z,78.79
2023-03-16T18:00:20.787Z,78.21
2023-03-16T18:01:35.950Z,78.07
2023-03-16T18:02:57.670Z,77.35
2023-03-16T18:04:02.746Z,78.04
2023-03-16T18:05:10.515Z,77.96
2023-03-16T18:06:21.674Z,77.62
2023-03-16T18:07:26.127Z,77.90
2023-03-16T18:08:30.670Z,78.49
2023-03-16T18:09:34.322Z,78.63
2023-03-16T18:10:37.832Z,78.02
2023-03-16T18:11:45.959Z,78.16
2023-03-16T18:12:54.390Z,78.41
2023-03-16T18:13:57.911Z,78.26
2023-03-16T18:15:01.779Z,78.24
2023-03-16T18:16:06.299Z,78.67
2023-03-16T18:17:16.319Z,78.43
2023-03-16T18:18:22.253Z,78.23
2023-03-16T18:19:26.221Z,78.27
2023-03-16T18:20:35.181Z,78.27
2023-03-16T18:21:39.610Z,78.83
2023-03-16T18:22:43.608Z,79.14
2023-03-16T18:23:47.277Z,79.05
2023-03-16T18:24:51.401Z,79.34
2023-03-16T18:25:56.449Z,79.74
2023-03-16T18:27:00.268Z,79.81
2023-03-16T18:28:03.853Z,79.97
2023-03-16T18:29:07.356Z,79.59
2023-03-16T18:30:11.718Z,80.41
2023-03-16T18:31:24.271Z,79.76
2023-03-16T18:32:29.383Z,80.24
2023-03-16T18:33:39.860Z,80.84
2023-03-16T18:34:42.901Z,80.23
2023-03-16T18:35:46.551Z,80.70
2023-03-16T18:36:50.467Z,79.94
2023-03-16T18:37:55.901Z,80.05
2023-03-16T18:39:04.757Z,79.83
2023-03-16T18:40:14.528Z,79.80
2023-03-16T18:41:36.527Z,80.39
2023-03-16T18:42:40.568Z,80.30
2023-03-16T18:43:44.891Z,79.86
2023-03-16T18:44:55.086Z,79.95
2023-03-16T18:45:59.105Z,79.97
2023-03-16T18:47:05.924Z,80.32
2023-03-16T18:48:10.174Z,80.45
2023-03-16T18:49:15.055Z,80.53
2023-03-16T18:50:27.192Z,80.62
2023-03-16T18:51:31.443Z,80.77
2023-03-16T18:52:35.534Z,80.91
2023-03-16T18:53:39.744Z,81.29
2023-03-16T18:54:46.524Z,80.61
2023-03-16T18:55:51.029Z,80.96
2023-03-16T18:56:55.015Z,81.21
2023-03-16T18:57:59.207Z,81.03
2023-03-16T18:59:03.206Z,81.24
2023-03-16T19:00:07.365Z,81.06
2023-03-16T19:01:11.011Z,80.86
2023-03-16T19:02:26.375Z,80.96
2023-03-16T19:03:33.929Z,80.83
2023-03-16T19:04:41.057Z,81.23
2023-03-16T19:05:44.632Z,80.94
2023-03-16T19:06:48.727Z,81.04
2023-03-16T19:07:52.984Z,81.02
2023-03-16T19:08:59.703Z,81.15
2023-03-16T19:10:28.026Z,80.93
2023-03-16T19:11:31.953Z,80.74
2023-03-16T19:12:37.714Z,80.26
2023-03-16T19:13:41.721Z,81.04
2023-03-16T19:14:45.610Z,80.90
2023-03-16T19:15:50.744Z,80.99
2023-03-16T19:16:55.416Z,80.90
2023-03-16T19:17:59.319Z,80.59
2023-03-16T19:19:03.203Z,80.60
2023-03-16T19:20:10.874Z,81.00
2023-03-16T19:21:19.698Z,80.86
2023-03-16T19:22:23.622Z,80.67
2023-03-16T19:23:29.431Z,80.72
2023-03-16T19:24:41.392Z,80.88
2023-03-16T19:25:46.354Z,81.02
2023-03-16T19:26:50.066Z,81.07
2023-03-16T19:27:54.439Z,81.17
2023-03-16T19:28:58.246Z,81.08
2023-03-16T19:30:02.293Z,80.96
2023-03-16T19:31:18.179Z,81.00
2023-03-16T19:32:22.327Z,80.88
2023-03-16T19:33:26.785Z,81.05
2023-03-16T19:34:30.358Z,81.33
2023-03-16T19:35:50.411Z,81.21
2023-03-16T19:36:55.332Z,81.30
2023-03-16T19:37:59.396Z,81.53
2023-03-16T19:39:04.900Z,81.32
2023-03-16T19:40:09.214Z,81.60
2023-03-16T19:41:24.392Z,81.74
2023-03-16T19:42:34.073Z,81.56
2023-03-16T19:43:37.623Z,81.52
2023-03-16T19:44:42.189Z,81.10
2023-03-16T19:45:46.539Z,81.73
2023-03-16T19:46:50.535Z,81.51
2023-03-16T19:47:54.679Z,81.79
2023-03-16T19:48:58.434Z,81.77
2023-03-16T19:50:02.321Z,81.89
2023-03-16T19:51:07.071Z,82.13
2023-03-16T19:52:11.226Z,82.47
2023-03-16T19:53:20.050Z,82.86
2023-03-16T19:54:27.949Z,82.78
2023-03-16T19:55:32.263Z,82.60
2023-03-16T19:56:36.246Z,82.94
2023-03-16T19:57:39.816Z,82.61
2023-03-16T19:58:45.857Z,82.51
2023-03-16T20:00:00.486Z,83.02
2023-03-16T20:01:04.134Z,82.68
2023-03-16T20:02:22.718Z,82.71
2023-03-16T20:03:26.648Z,82.86
2023-03-16T20:04:30.826Z,83.19
2023-03-16T20:05:34.828Z,83.29
2023-03-16T20:06:38.530Z,83.36
2023-03-16T20:07:42.343Z,83.17
2023-03-16T20:08:47.675Z,82.98
2023-03-16T20:09:51.762Z,82.31
2023-03-16T20:11:03.020Z,83.10
2023-03-16T20:12:07.483Z,83.02
2023-03-16T20:13:11.007Z,82.97
2023-03-16T20:14:40.427Z,82.81
2023-03-16T20:15:44.043Z,82.60
2023-03-16T20:16:48.712Z,82.95
2023-03-16T20:17:54.331Z,82.59
2023-03-16T20:19:02.849Z,81.97
2023-03-16T20:20:08.153Z,82.54
2023-03-16T20:21:18.271Z,82.83
2023-03-16T20:22:23.706Z,83.18
2023-03-16T20:23:31.583Z,82.97
2023-03-16T20:24:35.837Z,83.23
2023-03-16T20:25:39.418Z,83.07
2023-03-16T20:26:43.172Z,83.06
2023-03-16T20:27:47.697Z,83.29
2023-03-16T20:28:52.286Z,83.22
2023-03-16T20:29:56.704Z,83.50
2023-03-16T20:31:00.836Z,83.33
2023-03-16T20:32:05.341Z,83.03
2023-03-16T20:33:17.402Z,83.47
2023-03-16T20:34:27.276Z,83.10
2023-03-16T20:35:34.220Z,83.46
2023-03-16T20:36:38.247Z,83.65
2023-03-16T20:37:41.992Z,83.62
2023-03-16T20:38:46.109Z,83.61
2023-03-16T20:39:49.832Z,84.26
2023-03-16T20:40:53.975Z,84.11
2023-03-16T20:41:59.140Z,84.29
2023-03-16T20:43:03.081Z,84.36
2023-03-16T20:44:07.274Z,84.48
2023-03-16T20:45:31.344Z,84.74
2023-03-16T20:46:35.826Z,84.93
2023-03-16T20:47:39.896Z,85.04
2023-03-16T20:48:43.944Z,85.07
2023-03-16T20:49:49.795Z,84.67
2023-03-16T20:50:55.943Z,84.79
2023-03-16T20:51:59.852Z,85.04
2023-03-16T20:53:03.788Z,85.04
2023-03-16T20:54:07.885Z,85.36
2023-03-16T20:55:17.000Z,85.40
2023-03-16T20:56:24.736Z,85.29
2023-03-16T20:57:30.191Z,85.35
2023-03-16T20:58:36.286Z,85.02
2023-03-16T20:59:40.661Z,85.11
2023-03-16T21:00:45.254Z,85.06
2023-03-16T21:01:50.748Z,84.60
2023-03-16T21:02:55.331Z,85.26
2023-03-16T21:04:01.092Z,84.98
2023-03-16T21:05:06.143Z,84.98
2023-03-16T21:06:32.268Z,85.13
2023-03-16T21:07:36.400Z,84.83
2023-03-16T21:08:40.047Z,84.98
2023-03-16T21:09:50.069Z,85.05
2023-03-16T21:10:54.382Z,84.40
2023-03-16T21:11:58.489Z,84.83
2023-03-16T21:13:02.155Z,84.94
2023-03-16T21:14:07.245Z,84.93
2023-03-16T21:15:44.169Z,84.98
2023-03-16T21:16:48.743Z,84.75
2023-03-16T21:17:57.192Z,85.15
2023-03-16T21:19:00.850Z,85.35
2023-03-16T21:20:08.136Z,85.41
2023-03-16T21:21:16.748Z,85.57
2023-03-16T21:22:33.467Z,85.48
2023-03-16T21:23:37.743Z,85.36
2023-03-16T21:24:42.014Z,85.53
2023-03-16T21:25:51.311Z,85.58
2023-03-16T21:26:54.940Z,85.96
2023-03-16T21:28:00.772Z,85.37
2023-03-16T21:29:08.862Z,85.82
2023-03-16T21:30:31.395Z,85.79
2023-03-16T21:31:35.865Z,85.66
2023-03-16T21:32:39.900Z,86.12
2023-03-16T21:33:45.619Z,86.11
2023-03-16T21:34:49.733Z,86.12
2023-03-16T21:35:53.400Z,86.21
2023-03-16T21:36:57.446Z,86.12
2023-03-16T21:38:02.133Z,86.06
2023-03-16T21:39:07.338Z,85.99
2023-03-16T21:40:21.493Z,85.90
2023-03-16T21:41:31.630Z,86.24
2023-03-16T21:42:35.700Z,86.30
2023-03-16T21:43:40.592Z,86.16
2023-03-16T21:44:44.706Z,86.13
2023-03-16T21:45:48.873Z,86.55
2023-03-16T21:46:52.604Z,86.81
2023-03-16T21:47:57.783Z,86.39
2023-03-16T21:49:03.638Z,86.76
2023-03-16T21:50:22.802Z,86.62
2023-03-16T21:51:32.195Z,86.79
2023-03-16T21:52:36.339Z,86.78
2023-03-16T21:53:40.065Z,86.76
2023-03-16T21:54:44.081Z,86.81
2023-03-16T21:55:49.402Z,86.60
2023-03-16T21:56:53.365Z,86.57
2023-03-16T21:57:57.905Z,86.79
2023-03-16T21:59:02.404Z,86.71
2023-03-16T22:00:07.010Z,86.94
2023-03-16T22:01:29.505Z,86.82
2023-03-16T22:02:33.587Z,87.09
2023-03-16T22:03:50.368Z,87.27
2023-03-16T22:04:55.304Z,86.81
2023-03-16T22:05:59.589Z,87.07
2023-03-16T22:07:03.085Z,87.09
2023-03-16T22:08:15.258Z,87.17
2023-03-16T22:09:20.130Z,86.99
2023-03-16T22:10:24.609Z,86.62
2023-03-16T22:11:29.366Z,87.06
2023-03-16T22:12:33.370Z,86.84
2023-03-16T22:13:36.952Z,86.84
2023-03-16T22:14:41.057Z,86.75
2023-03-16T22:15:45.092Z,86.86
2023-03-16T22:16:48.621Z,86.62
2023-03-16T22:17:54.285Z,86.38
2023-03-16T22:18:58.700Z,86.59
2023-03-16T22:20:02.239Z,86.47
2023-03-16T22:21:21.189Z,86.45
2023-03-16T22:22:24.769Z,86.37
2023-03-16T22:23:36.178Z,86.09
2023-03-16T22:24:39.978Z,86.04
2023-03-16T22:25:43.425Z,86.09
2023-03-16T22:26:48.702Z,86.10
2023-03-16T22:27:56.475Z,85.91
2023-03-16T22:29:01.995Z,86.03
2023-03-16T22:30:06.499Z,86.29
2023-03-16T22:31:12.348Z,86.23
2023-03-16T22:32:17.496Z,86.27
2023-03-16T22:33:26.809Z,86.41
2023-03-16T22:34:43.772Z,86.62
2023-03-16T22:35:47.401Z,86.51
2023-03-16T22:36:50.928Z,86.73
2023-03-16T22:37:56.449Z,86.56
2023-03-16T22:39:05.005Z,86.34
2023-03-16T22:40:16.894Z,86.45
2023-03-16T22:41:20.775Z,86.51
2023-03-16T22:42:37.689Z,86.36
2023-03-16T22:43:42.826Z,86.32
2023-03-16T22:44:46.702Z,86.21
2023-03-16T22:45:55.144Z,86.49
2023-03-16T22:46:59.055Z,86.48
2023-03-16T22:48:03.702Z,86.01
2023-03-16T22:49:10.467Z,86.07
2023-03-16T22:50:15.717Z,85.99
2023-03-16T22:51:31.066Z,86.30
2023-03-16T22:52:35.714Z,86.43
2023-03-16T22:53:41.455Z,86.09
2023-03-16T22:54:45.805Z,86.41
2023-03-16T22:55:53.701Z,86.47
2023-03-16T22:56:59.574Z,86.61
2023-03-16T22:58:19.050Z,86.34
2023-03-16T22:59:23.893Z,86.40
2023-03-16T23:00:29.651Z,86.20
2023-03-16T23:01:35.910Z,86.74
2023-03-16T23:02:39.901Z,86.33
2023-03-16T23:03:44.057Z,85.99
2023-03-16T23:04:48.670Z,86.19
2023-03-16T23:05:52.555Z,86.37
2023-03-16T23:06:56.012Z,86.28
2023-03-16T23:08:03.164Z,86.32
2023-03-16T23:09:06.726Z,86.12
2023-03-16T23:10:12.227Z,86.27
2023-03-16T23:11:28.385Z,86.58
2023-03-16T23:12:32.043Z,86.50
2023-03-16T23:13:35.519Z,86.34
2023-03-16T23:14:39.451Z,86.61
2023-03-16T23:15:44.137Z,86.43
2023-03-16T23:16:47.909Z,86.57
2023-03-16T23:17:52.102Z,86.36
2023-03-16T23:18:56.330Z,86.48
2023-03-16T23:20:00.297Z,86.71
2023-03-16T23:21:04.631Z,86.63
2023-03-16T23:22:08.775Z,86.47
2023-03-16T23:23:12.965Z,86.61
2023-03-16T23:24:16.621Z,86.38
2023-03-16T23:25:21.400Z,85.98
2023-03-16T23:26:26.083Z,86.02
2023-03-16T23:27:29.602Z,86.12
2023-03-16T23:28:33.472Z,86.16
2023-03-16T23:29:37.353Z,86.06
2023-03-16T23:30:41.378Z,85.87
2023-03-16T23:31:45.289Z,85.96
2023-03-16T23:32:49.434Z,85.68
2023-03-16T23:33:53.440Z,85.91
2023-03-16T23:34:57.446Z,85.84
2023-03-16T23:36:01.485Z,85.84
2023-03-16T23:37:05.200Z,85.88
2023-03-16T23:38:08.858Z,86.18
2023-03-16T23:39:12.693Z,86.11
2023-03-16T23:40:16.984Z,86.03
2023-03-16T23:41:24.382Z,85.90
2023-03-16T23:42:28.142Z,86.03
2023-03-16T23:43:32.109Z,85.92
2023-03-16T23:44:35.652Z,86.10
2023-03-16T23:45:44.137Z,85.75
2023-03-16T23:46:47.954Z,85.90
2023-03-16T23:47:53.618Z,85.97
2023-03-16T23:48:58.028Z,86.18
2023-03-16T23:50:01.547Z,86.08
2023-03-16T23:51:05.281Z,86.15
2023-03-16T23:52:10.231Z,86.08
2023-03-16T23:53:17.481Z,86.13
2023-03-16T23:54:24.400Z,86.15
2023-03-16T23:55:28.070Z,85.99
2023-03-16T23:56:32.084Z,85.97
2023-03-16T23:57:37.856Z,86.19
2023-03-16T23:58:43.230Z,86.04
2023-03-16T23:59:46.807Z,86.26
